createdAt,value
2022-08-28T00:01:13.069Z,3.13
2022-08-28T00:03:40.668Z,3.53
2022-08-28T00:06:08.225Z,3.38
2022-08-28T00:08:36.330Z,3.50
2022-08-28T00:11:04.775Z,3.67
2022-08-28T00:13:32.350Z,3.40
2022-08-28T00:16:01.840Z,3.13
2022-08-28T00:18:30.069Z,3.25
2022-08-28T00:20:58.400Z,3.00
2022-08-28T00:23:26.374Z,3.13
2022-08-28T00:26:09.734Z,3.30
2022-08-28T00:28:36.291Z,3.30
2022-08-28T00:31:05.431Z,3.58
2022-08-28T00:33:34.093Z,3.33
2022-08-28T00:36:02.525Z,2.97
2022-08-28T00:38:30.444Z,3.00
2022-08-28T00:41:00.101Z,3.45
2022-08-28T00:43:34.720Z,2.60
2022-08-28T00:46:02.782Z,3.35
2022-08-28T00:48:31.905Z,2.90
2022-08-28T00:51:17.365Z,2.65
2022-08-28T00:53:45.341Z,3.10
2022-08-28T00:56:13.807Z,3.15
2022-08-28T00:58:43.288Z,2.85
2022-08-28T01:01:11.018Z,3.00
2022-08-28T01:03:40.041Z,3.20
2022-08-28T01:06:08.098Z,3.20
2022-08-28T01:08:36.329Z,3.10
2022-08-28T01:11:05.534Z,2.83
2022-08-28T01:13:33.881Z,2.90
2022-08-28T01:16:03.744Z,3.08
2022-08-28T01:18:32.368Z,2.97
2022-08-28T01:21:04.392Z,3.17
2022-08-28T01:23:42.667Z,3.10
2022-08-28T01:26:11.820Z,2.93
2022-08-28T01:28:39.850Z,2.80
2022-08-28T01:31:09.965Z,3.13
2022-08-28T01:33:37.953Z,2.50
2022-08-28T01:36:10.416Z,3.17
2022-08-28T01:38:38.366Z,2.67
2022-08-28T01:41:07.388Z,2.90
2022-08-28T01:43:35.069Z,3.03
2022-08-28T01:46:04.454Z,2.70
2022-08-28T01:48:33.366Z,2.97
2022-08-28T01:51:00.912Z,2.90
2022-08-28T01:53:33.145Z,3.35
2022-08-28T01:56:02.385Z,2.65
2022-08-28T01:58:37.937Z,3.03
2022-08-28T02:01:06.108Z,2.90
2022-08-28T02:03:33.742Z,3.00
2022-08-28T02:06:01.292Z,2.80
2022-08-28T02:08:28.870Z,2.70
2022-08-28T02:10:56.411Z,3.13
2022-08-28T02:13:25.688Z,2.80
2022-08-28T02:15:54.808Z,2.40
2022-08-28T02:18:22.705Z,2.63
2022-08-28T02:20:50.517Z,2.80
2022-08-28T02:23:18.198Z,3.70
2022-08-28T02:25:45.752Z,2.72
2022-08-28T02:28:15.166Z,3.00
2022-08-28T02:30:42.791Z,2.60
2022-08-28T02:33:11.718Z,2.95
2022-08-28T02:35:40.472Z,3.13
2022-08-28T02:38:07.978Z,2.97
2022-08-28T02:40:37.128Z,3.50
2022-08-28T02:43:04.859Z,3.13
2022-08-28T02:45:32.733Z,2.80
2022-08-28T02:48:01.898Z,2.63
2022-08-28T02:50:31.560Z,2.88
2022-08-28T02:52:59.503Z,2.70
2022-08-28T02:55:30.250Z,2.70
2022-08-28T02:58:01.217Z,3.00
2022-08-28T03:00:28.758Z,2.70
2022-08-28T03:02:56.341Z,2.70
2022-08-28T03:05:27.451Z,2.60
2022-08-28T03:07:56.345Z,2.70
2022-08-28T03:10:24.650Z,3.17
2022-08-28T03:12:52.732Z,2.80
2022-08-28T03:15:20.788Z,2.92
2022-08-28T03:17:48.618Z,2.43
2022-08-28T03:20:18.288Z,2.40
2022-08-28T03:23:03.446Z,2.50
2022-08-28T03:25:32.374Z,2.17
2022-08-28T03:27:59.926Z,2.97
2022-08-28T03:30:27.750Z,3.00
2022-08-28T03:32:55.279Z,2.50
2022-08-28T03:35:22.963Z,2.58
2022-08-28T03:37:50.553Z,2.70
2022-08-28T03:40:18.540Z,2.40
2022-08-28T03:42:53.390Z,2.30
2022-08-28T03:45:21.291Z,2.47
2022-08-28T03:47:48.864Z,2.80
2022-08-28T03:50:18.539Z,2.80
2022-08-28T03:52:47.500Z,2.70
2022-08-28T03:55:15.037Z,2.40
2022-08-28T03:57:42.623Z,3.33
2022-08-28T04:00:13.395Z,2.83
2022-08-28T04:02:41.084Z,3.25
2022-08-28T04:05:09.554Z,2.90
2022-08-28T04:07:37.644Z,2.87
2022-08-28T04:10:05.753Z,2.30
2022-08-28T04:12:35.187Z,2.70
2022-08-28T04:15:04.196Z,2.63
2022-08-28T04:17:33.337Z,3.25
2022-08-28T04:20:00.913Z,2.80
2022-08-28T04:22:28.455Z,3.03
2022-08-28T04:24:55.988Z,2.70
2022-08-28T04:27:23.516Z,2.58
2022-08-28T04:29:51.080Z,2.67
2022-08-28T04:32:18.646Z,2.63
2022-08-28T04:34:47.581Z,3.08
2022-08-28T04:37:16.169Z,2.78
2022-08-28T04:39:43.781Z,2.85
2022-08-28T04:42:11.432Z,2.90
2022-08-28T04:44:38.945Z,2.90
2022-08-28T04:47:06.654Z,2.83
2022-08-28T04:49:34.236Z,3.33
2022-08-28T04:52:03.490Z,2.83
2022-08-28T04:54:32.791Z,2.88
2022-08-28T04:57:00.391Z,2.50
2022-08-28T04:59:28.213Z,3.38
2022-08-28T05:01:55.800Z,3.13
2022-08-28T05:04:23.486Z,2.65
2022-08-28T05:06:51.032Z,3.55
2022-08-28T05:09:20.624Z,2.97
2022-08-28T05:11:49.241Z,3.50
2022-08-28T05:14:17.127Z,2.70
2022-08-28T05:16:46.203Z,3.15
2022-08-28T05:19:15.805Z,3.30
2022-08-28T05:21:44.076Z,3.20
2022-08-28T05:24:12.716Z,2.65
2022-08-28T05:26:41.963Z,3.33
2022-08-28T05:29:10.160Z,3.05
2022-08-28T05:31:39.070Z,3.30
2022-08-28T05:34:07.068Z,2.73
2022-08-28T05:36:35.839Z,2.95
2022-08-28T05:39:05.351Z,3.33
2022-08-28T05:41:33.049Z,3.08
2022-08-28T05:44:03.132Z,3.13
2022-08-28T05:46:31.054Z,3.30
2022-08-28T05:49:00.144Z,3.25
2022-08-28T05:51:29.427Z,3.13
2022-08-28T05:53:58.399Z,3.10
2022-08-28T05:56:26.928Z,3.42
2022-08-28T05:58:54.450Z,2.80
2022-08-28T06:01:24.361Z,2.88
2022-08-28T06:03:54.553Z,3.38
2022-08-28T06:06:24.479Z,3.33
2022-08-28T06:08:58.336Z,3.33
2022-08-28T06:11:27.160Z,3.10
2022-08-28T06:13:58.857Z,3.60
2022-08-28T06:16:27.833Z,3.25
2022-08-28T06:18:57.454Z,3.40
2022-08-28T06:21:25.407Z,3.30
2022-08-28T06:23:53.064Z,3.30
2022-08-28T06:26:20.762Z,3.28
2022-08-28T06:28:48.275Z,3.42
2022-08-28T06:31:24.741Z,3.55
2022-08-28T06:33:56.025Z,3.70
2022-08-28T06:36:23.605Z,3.10
2022-08-28T06:38:51.413Z,3.28
2022-08-28T06:41:19.695Z,3.50
2022-08-28T06:43:47.255Z,3.30
2022-08-28T06:46:15.020Z,3.58
2022-08-28T06:48:42.775Z,3.40
2022-08-28T06:51:12.980Z,3.20
2022-08-28T06:53:41.364Z,3.40
2022-08-28T06:56:10.065Z,3.25
2022-08-28T06:58:39.286Z,3.47
2022-08-28T07:01:07.912Z,2.90
2022-08-28T07:03:35.513Z,3.20
2022-08-28T07:06:12.460Z,3.35
2022-08-28T07:08:40.626Z,3.25
2022-08-28T07:11:11.864Z,3.60
2022-08-28T07:13:39.451Z,3.37
2022-08-28T07:16:07.366Z,3.50
2022-08-28T07:18:35.316Z,3.25
2022-08-28T07:21:02.859Z,3.33
2022-08-28T07:23:33.124Z,3.47
2022-08-28T07:26:01.284Z,2.97
2022-08-28T07:28:29.169Z,3.38
2022-08-28T07:30:58.033Z,3.20
2022-08-28T07:33:26.714Z,3.50
2022-08-28T07:35:54.618Z,3.65
2022-08-28T07:38:22.379Z,3.00
2022-08-28T07:40:51.310Z,2.90
2022-08-28T07:43:36.654Z,2.83
2022-08-28T07:46:06.279Z,3.13
2022-08-28T07:48:35.149Z,3.28
2022-08-28T07:51:02.765Z,3.30
2022-08-28T07:53:34.397Z,3.25
2022-08-28T07:56:05.765Z,3.00
2022-08-28T07:58:33.405Z,3.15
2022-08-28T08:01:01.459Z,3.15
2022-08-28T08:03:30.204Z,3.00
2022-08-28T08:05:59.117Z,3.25
2022-08-28T08:08:27.087Z,3.28
2022-08-28T08:10:58.321Z,2.90
2022-08-28T08:13:28.647Z,3.05
2022-08-28T08:15:56.384Z,3.43
2022-08-28T08:18:24.192Z,2.95
2022-08-28T08:20:51.912Z,3.72
2022-08-28T08:23:19.515Z,3.22
2022-08-28T08:25:54.902Z,3.15
2022-08-28T08:28:22.490Z,3.27
2022-08-28T08:30:51.428Z,2.90
2022-08-28T08:33:19.090Z,3.00
2022-08-28T08:35:46.709Z,3.00
2022-08-28T08:38:14.710Z,2.88
2022-08-28T08:40:42.909Z,2.80
2022-08-28T08:43:11.134Z,3.30
2022-08-28T08:45:39.338Z,3.10
2022-08-28T08:48:13.933Z,3.80
2022-08-28T08:50:42.332Z,3.88
2022-08-28T08:53:16.893Z,3.80
2022-08-28T08:55:45.853Z,4.20
2022-08-28T08:58:14.893Z,3.53
2022-08-28T09:00:47.611Z,3.47
2022-08-28T09:03:25.271Z,3.63
2022-08-28T09:05:55.593Z,3.50
2022-08-28T09:08:27.611Z,3.78
2022-08-28T09:11:01.272Z,3.97
2022-08-28T09:13:31.957Z,3.58
2022-08-28T09:15:59.708Z,3.83
2022-08-28T09:18:30.018Z,3.87
2022-08-28T09:20:58.503Z,4.15
2022-08-28T09:23:27.002Z,4.60
2022-08-28T09:25:59.807Z,3.70
2022-08-28T09:28:31.121Z,3.40
2022-08-28T09:31:03.928Z,4.00
2022-08-28T09:33:35.061Z,4.00
2022-08-28T09:36:17.508Z,4.00
2022-08-28T09:38:45.077Z,4.43
2022-08-28T09:41:30.185Z,4.63
2022-08-28T09:43:58.086Z,3.83
2022-08-28T09:46:29.234Z,3.60
2022-08-28T09:49:08.579Z,4.63
2022-08-28T09:51:38.676Z,4.17
2022-08-28T09:54:09.031Z,4.40
2022-08-28T09:56:39.782Z,4.70
2022-08-28T09:59:08.437Z,3.90
2022-08-28T10:01:40.177Z,4.15
2022-08-28T10:04:28.114Z,3.70
2022-08-28T10:06:57.363Z,4.10
2022-08-28T10:09:28.896Z,3.90
2022-08-28T10:12:00.041Z,3.50
2022-08-28T10:14:40.929Z,4.30
2022-08-28T10:17:13.186Z,3.90
2022-08-28T10:19:47.842Z,4.00
2022-08-28T10:22:21.620Z,3.50
2022-08-28T10:24:57.140Z,3.47
2022-08-28T10:27:31.668Z,3.90
2022-08-28T10:30:07.934Z,4.07
2022-08-28T10:32:55.617Z,4.13
2022-08-28T10:35:26.657Z,3.70
2022-08-28T10:37:58.777Z,4.10
2022-08-28T10:40:29.015Z,4.40
2022-08-28T10:43:00.404Z,4.40
2022-08-28T10:45:29.007Z,4.43
2022-08-28T10:47:58.023Z,4.22
2022-08-28T10:50:28.253Z,3.85
2022-08-28T10:52:58.412Z,4.10
2022-08-28T10:55:29.336Z,4.27
2022-08-28T10:57:58.660Z,3.85
2022-08-28T11:00:27.364Z,4.50
2022-08-28T11:02:57.951Z,4.90
2022-08-28T11:05:28.346Z,4.72
2022-08-28T11:07:57.631Z,4.55
2022-08-28T11:10:40.035Z,4.40
2022-08-28T11:13:09.563Z,4.50
2022-08-28T11:15:57.965Z,4.60
2022-08-28T11:18:44.882Z,3.95
2022-08-28T11:21:17.382Z,4.32
2022-08-28T11:23:48.712Z,4.35
2022-08-28T11:26:25.351Z,4.68
2022-08-28T11:28:54.068Z,4.88
2022-08-28T11:31:30.320Z,3.72
2022-08-28T11:33:59.522Z,4.53
2022-08-28T11:36:45.647Z,4.40
2022-08-28T11:39:22.363Z,4.38
2022-08-28T11:42:08.667Z,3.45
2022-08-28T11:44:41.154Z,4.00
2022-08-28T11:47:35.313Z,4.43
2022-08-28T11:50:05.590Z,4.05
2022-08-28T11:52:42.439Z,4.47
2022-08-28T11:55:20.071Z,3.55
2022-08-28T12:00:29.107Z,3.57
2022-08-28T12:03:10.840Z,3.30
2022-08-28T12:05:44.311Z,3.15
2022-08-28T12:08:14.369Z,3.70
2022-08-28T12:10:57.122Z,3.40
2022-08-28T12:13:45.599Z,3.43
2022-08-28T12:16:15.672Z,3.42
2022-08-28T12:19:01.158Z,3.40
2022-08-28T12:21:29.653Z,3.78
2022-08-28T12:23:59.236Z,3.67
2022-08-28T12:26:30.061Z,4.37
2022-08-28T12:28:58.995Z,3.58
2022-08-28T12:31:54.693Z,4.13
2022-08-28T12:34:27.898Z,3.80
2022-08-28T12:36:59.685Z,3.90
2022-08-28T12:39:28.126Z,3.75
2022-08-28T12:41:57.139Z,3.77
2022-08-28T12:44:26.740Z,3.30
2022-08-28T12:46:54.986Z,3.35
2022-08-28T12:49:30.847Z,3.83
2022-08-28T12:52:08.286Z,4.32
2022-08-28T12:54:36.085Z,4.03
2022-08-28T12:57:08.245Z,3.67
2022-08-28T12:59:37.264Z,3.78
2022-08-28T13:02:05.695Z,3.78
2022-08-28T13:04:34.421Z,3.83
2022-08-28T13:07:04.195Z,3.50
2022-08-28T13:09:31.767Z,3.72
2022-08-28T13:11:59.512Z,4.10
2022-08-28T13:14:41.909Z,3.70
2022-08-28T13:17:10.125Z,3.53
2022-08-28T13:19:38.566Z,4.00
2022-08-28T13:22:09.037Z,3.33
2022-08-28T13:24:42.327Z,3.78
2022-08-28T13:27:17.254Z,3.88
2022-08-28T13:29:52.761Z,3.72
2022-08-28T13:32:25.320Z,3.33
2022-08-28T13:35:10.496Z,3.28
2022-08-28T13:37:43.056Z,3.97
2022-08-28T13:40:24.512Z,3.50
2022-08-28T13:43:00.229Z,3.75
2022-08-28T13:45:36.316Z,3.60
2022-08-28T13:48:11.464Z,3.60
2022-08-28T13:50:40.051Z,3.58
2022-08-28T13:53:07.625Z,3.97
2022-08-28T13:55:35.184Z,4.07
2022-08-28T13:58:03.589Z,4.17
2022-08-28T14:00:33.814Z,3.83
2022-08-28T14:03:18.879Z,3.78
2022-08-28T14:05:46.418Z,4.13
2022-08-28T14:08:14.093Z,4.03
2022-08-28T14:10:42.224Z,3.90
2022-08-28T14:13:09.753Z,3.67
2022-08-28T14:15:38.657Z,4.32
2022-08-28T14:18:06.565Z,3.92
2022-08-28T14:20:36.921Z,3.97
2022-08-28T14:23:04.480Z,3.33
2022-08-28T14:25:37.100Z,3.50
2022-08-28T14:28:06.756Z,3.83
2022-08-28T14:30:34.306Z,4.20
2022-08-28T14:33:03.653Z,3.72
2022-08-28T14:35:31.237Z,3.70
2022-08-28T14:37:58.787Z,3.95
2022-08-28T14:40:26.547Z,3.90
2022-08-28T14:42:54.122Z,3.65
2022-08-28T14:45:21.691Z,3.35
2022-08-28T14:47:49.384Z,3.37
2022-08-28T14:50:18.446Z,3.40
2022-08-28T14:52:46.024Z,3.60
2022-08-28T14:55:18.752Z,3.60
2022-08-28T14:57:48.105Z,3.50
2022-08-28T15:00:18.974Z,3.30
2022-08-28T15:02:46.556Z,3.45
2022-08-28T15:05:15.497Z,3.30
2022-08-28T15:07:45.349Z,3.67
2022-08-28T15:10:14.063Z,3.25
2022-08-28T15:12:42.596Z,3.73
2022-08-28T15:15:10.610Z,3.85
2022-08-28T15:17:38.165Z,3.80
2022-08-28T15:20:07.452Z,3.92
2022-08-28T15:22:35.075Z,3.60
2022-08-28T15:25:05.833Z,3.87
2022-08-28T15:27:33.426Z,3.58
2022-08-28T15:30:01.001Z,3.25
2022-08-28T15:32:28.625Z,3.90
2022-08-28T15:34:56.233Z,3.40
2022-08-28T15:37:23.804Z,3.43
2022-08-28T15:40:08.701Z,3.45
2022-08-28T15:42:37.634Z,3.40
2022-08-28T15:45:05.525Z,4.00
2022-08-28T15:47:33.375Z,3.30
2022-08-28T15:50:01.232Z,3.60
2022-08-28T15:52:28.836Z,3.40
2022-08-28T15:54:56.500Z,3.60
2022-08-28T15:57:24.069Z,4.00
2022-08-28T15:59:53.396Z,3.60
2022-08-28T16:02:21.803Z,3.80
2022-08-28T16:04:49.536Z,3.30
2022-08-28T16:07:17.304Z,4.25
2022-08-28T16:09:44.903Z,3.22
2022-08-28T16:12:12.458Z,3.40
2022-08-28T16:14:39.968Z,3.67
2022-08-28T16:17:10.845Z,3.60
2022-08-28T16:19:38.799Z,3.53
2022-08-28T16:22:06.449Z,3.92
2022-08-28T16:24:34.509Z,4.03
2022-08-28T16:27:02.322Z,3.90
2022-08-28T16:29:29.869Z,3.53
2022-08-28T16:31:57.603Z,3.60
2022-08-28T16:34:31.363Z,3.90
2022-08-28T16:36:59.209Z,3.95
2022-08-28T16:39:27.647Z,3.70
2022-08-28T16:41:55.797Z,3.70
2022-08-28T16:44:25.932Z,3.90
2022-08-28T16:46:53.885Z,4.07
2022-08-28T16:49:21.706Z,3.80
2022-08-28T16:51:51.855Z,3.60
2022-08-28T16:54:21.399Z,3.95
2022-08-28T16:56:49.008Z,4.07
2022-08-28T16:59:20.378Z,4.63
2022-08-28T17:01:52.823Z,4.10
2022-08-28T17:04:21.366Z,4.47
2022-08-28T17:06:50.459Z,4.43
2022-08-28T17:09:21.263Z,4.28
2022-08-28T17:11:51.580Z,4.03
2022-08-28T17:14:19.956Z,4.35
2022-08-28T17:16:47.592Z,4.70
2022-08-28T17:19:15.721Z,4.43
2022-08-28T17:22:00.722Z,4.68
2022-08-28T17:24:31.041Z,4.22
2022-08-28T17:27:03.212Z,5.05
2022-08-28T17:29:32.832Z,4.53
2022-08-28T17:32:00.431Z,5.07
2022-08-28T17:34:30.259Z,4.95
2022-08-28T17:36:58.324Z,4.72
2022-08-28T17:39:25.925Z,5.15
2022-08-28T17:41:55.241Z,5.40
2022-08-28T17:44:23.249Z,5.30
2022-08-28T17:46:51.684Z,5.00
2022-08-28T17:49:19.823Z,5.15
2022-08-28T17:51:47.632Z,5.03
2022-08-28T17:54:17.758Z,5.40
2022-08-28T17:56:45.365Z,4.80
2022-08-28T17:59:14.850Z,4.90
2022-08-28T18:01:42.945Z,5.57
2022-08-28T18:04:11.176Z,5.40
2022-08-28T18:06:39.587Z,6.07
2022-08-28T18:09:08.067Z,5.25
2022-08-28T18:11:35.791Z,6.15
2022-08-28T18:14:03.454Z,5.95
2022-08-28T18:16:33.839Z,5.80
2022-08-28T18:19:02.036Z,5.87
2022-08-28T18:21:30.167Z,6.10
2022-08-28T18:23:58.242Z,5.90
2022-08-28T18:26:25.841Z,6.10
2022-08-28T18:28:53.772Z,6.07
2022-08-28T18:31:21.342Z,5.87
2022-08-28T18:33:50.744Z,6.50
2022-08-28T18:36:18.376Z,6.28
2022-08-28T18:38:47.118Z,6.13
2022-08-28T18:41:15.231Z,6.45
2022-08-28T18:43:43.160Z,6.80
2022-08-28T18:46:14.040Z,6.93
2022-08-28T18:48:42.091Z,6.70
2022-08-28T18:51:11.882Z,6.70
2022-08-28T18:53:42.325Z,7.15
2022-08-28T18:56:12.266Z,7.00
2022-08-28T18:58:40.556Z,7.63
2022-08-28T19:01:09.345Z,7.40
2022-08-28T19:03:37.050Z,7.35
2022-08-28T19:06:06.233Z,7.10
2022-08-28T19:08:37.690Z,7.03
2022-08-28T19:11:07.586Z,8.05
2022-08-28T19:13:35.277Z,7.47
2022-08-28T19:16:03.087Z,7.10
2022-08-28T19:18:30.937Z,7.13
2022-08-28T19:21:05.609Z,7.50
2022-08-28T19:23:33.212Z,7.13
2022-08-28T19:26:02.080Z,7.45
2022-08-28T19:28:29.932Z,7.93
2022-08-28T19:30:57.479Z,7.53
2022-08-28T19:33:25.030Z,7.10
2022-08-28T19:35:53.274Z,8.32
2022-08-28T19:38:20.816Z,7.57
2022-08-28T19:40:48.926Z,7.40
2022-08-28T19:43:18.010Z,7.30
2022-08-28T19:45:46.238Z,7.63
2022-08-28T19:48:13.937Z,7.20
2022-08-28T19:50:41.740Z,7.43
2022-08-28T19:53:09.894Z,7.43
2022-08-28T19:55:37.443Z,7.97
2022-08-28T19:58:06.576Z,7.43
2022-08-28T20:00:36.860Z,7.97
2022-08-28T20:03:04.731Z,7.30
2022-08-28T20:05:32.465Z,7.57
2022-08-28T20:08:00.008Z,7.95
2022-08-28T20:10:27.608Z,8.13
2022-08-28T20:12:55.182Z,7.85
2022-08-28T20:15:22.807Z,7.88
2022-08-28T20:17:51.813Z,8.07
2022-08-28T20:20:19.922Z,7.05
2022-08-28T20:22:47.516Z,7.77
2022-08-28T20:25:18.186Z,8.48
2022-08-28T20:27:45.726Z,7.72
2022-08-28T20:30:13.863Z,7.97
2022-08-28T20:32:41.445Z,7.68
2022-08-28T20:35:11.872Z,7.60
2022-08-28T20:37:45.440Z,8.35
2022-08-28T20:40:14.365Z,8.43
2022-08-28T20:42:42.067Z,8.05
2022-08-28T20:45:10.021Z,8.00
2022-08-28T20:47:37.777Z,8.40
2022-08-28T20:50:05.770Z,8.48
2022-08-28T20:52:34.694Z,8.02
2022-08-28T20:55:02.243Z,7.90
2022-08-28T20:57:29.806Z,8.27
2022-08-28T20:59:57.367Z,7.53
2022-08-28T21:02:26.663Z,7.85
2022-08-28T21:04:54.578Z,8.48
2022-08-28T21:07:23.217Z,7.90
2022-08-28T21:10:04.919Z,7.45
2022-08-28T21:12:34.572Z,8.03
2022-08-28T21:15:02.424Z,7.85
2022-08-28T21:17:30.862Z,7.78
2022-08-28T21:19:59.893Z,8.23
2022-08-28T21:22:27.420Z,8.15
2022-08-28T21:24:56.365Z,8.70
2022-08-28T21:27:23.940Z,8.27
2022-08-28T21:29:51.469Z,8.77
2022-08-28T21:32:19.070Z,8.43
2022-08-28T21:34:46.594Z,8.40
2022-08-28T21:37:14.147Z,8.70
2022-08-28T21:39:41.648Z,8.30
2022-08-28T21:42:10.861Z,8.25
2022-08-28T21:44:38.779Z,8.38
2022-08-28T21:47:06.768Z,7.85
2022-08-28T21:49:35.295Z,7.70
2022-08-28T21:52:05.898Z,7.88
2022-08-28T21:54:33.407Z,7.75
2022-08-28T21:57:00.980Z,7.72
2022-08-28T21:59:34.149Z,8.20
2022-08-28T22:02:05.812Z,8.20
2022-08-28T22:04:33.469Z,8.05
2022-08-28T22:07:01.073Z,9.05
2022-08-28T22:09:29.033Z,8.75
2022-08-28T22:11:56.996Z,9.43
2022-08-28T22:14:25.902Z,9.30
2022-08-28T22:16:54.934Z,8.90
2022-08-28T22:19:22.533Z,8.20
2022-08-28T22:22:07.462Z,8.93
2022-08-28T22:24:36.568Z,7.80
2022-08-28T22:27:04.326Z,8.40
2022-08-28T22:29:36.431Z,8.45
2022-08-28T22:32:06.376Z,8.07
2022-08-28T22:34:36.812Z,8.82
2022-08-28T22:37:04.359Z,8.40
2022-08-28T22:39:31.908Z,8.20
2022-08-28T22:41:59.461Z,8.40
2022-08-28T22:44:27.002Z,8.40
2022-08-28T22:46:54.556Z,8.40
2022-08-28T22:49:23.488Z,8.20
2022-08-28T22:51:51.081Z,8.13
2022-08-28T22:54:18.725Z,7.68
2022-08-28T22:56:46.237Z,7.80
2022-08-28T22:59:13.822Z,7.38
2022-08-28T23:01:42.456Z,8.38
2022-08-28T23:04:10.435Z,7.30
2022-08-28T23:06:40.326Z,7.53
2022-08-28T23:09:09.067Z,7.97
2022-08-28T23:11:36.959Z,7.95
2022-08-28T23:14:04.541Z,7.75
2022-08-28T23:16:32.945Z,7.87
2022-08-28T23:19:10.349Z,7.93
2022-08-28T23:21:44.112Z,7.72
2022-08-28T23:24:12.686Z,7.78
2022-08-28T23:26:40.250Z,7.88
2022-08-28T23:29:07.798Z,8.07
2022-08-28T23:31:35.639Z,8.07
2022-08-28T23:34:03.316Z,8.27
2022-08-28T23:36:32.766Z,8.07
2022-08-28T23:39:04.668Z,8.40
2022-08-28T23:41:32.312Z,8.00
2022-08-28T23:43:59.872Z,7.85
2022-08-28T23:46:27.536Z,7.65
2022-08-28T23:48:55.202Z,7.35
2022-08-28T23:51:22.759Z,6.95
2022-08-28T23:53:52.871Z,6.87
2022-08-28T23:56:21.892Z,7.13
2022-08-28T23:58:55.852Z,6.85
